createdAt,value
2023-01-11T00:01:01.853Z,3.92
2023-01-11T00:04:04.754Z,3.96
2023-01-11T00:07:07.239Z,3.96
2023-01-11T00:10:10.657Z,4.02
2023-01-11T00:13:14.276Z,3.95
2023-01-11T00:16:17.350Z,3.97
2023-01-11T00:19:19.912Z,3.91
2023-01-11T00:22:22.669Z,3.83
2023-01-11T00:25:25.321Z,3.68
2023-01-11T00:28:28.184Z,3.58
2023-01-11T00:31:31.185Z,3.43
2023-01-11T00:34:33.902Z,3.36
2023-01-11T00:37:36.468Z,3.22
2023-01-11T00:40:39.263Z,3.04
2023-01-11T00:44:00.258Z,2.95
2023-01-11T00:47:21.630Z,2.85
2023-01-11T00:50:25.394Z,2.69
2023-01-11T00:53:28.120Z,2.60
2023-01-11T00:56:30.596Z,2.72
2023-01-11T00:59:34.570Z,2.70
2023-01-11T01:02:37.162Z,2.61
2023-01-11T01:05:40.124Z,2.51
2023-01-11T01:08:42.576Z,2.36
2023-01-11T01:11:45.380Z,2.44
2023-01-11T01:14:47.909Z,2.45
2023-01-11T01:17:54.349Z,2.47
2023-01-11T01:20:56.944Z,2.52
2023-01-11T01:23:59.727Z,2.48
2023-01-11T01:27:02.247Z,2.52
2023-01-11T01:30:06.015Z,2.61
2023-01-11T01:33:08.848Z,2.67
2023-01-11T01:36:11.625Z,2.71
2023-01-11T01:39:14.460Z,2.93
2023-01-11T01:42:19.792Z,3.01
2023-01-11T01:45:26.801Z,2.94
2023-01-11T01:48:29.612Z,2.79
2023-01-11T01:51:35.232Z,2.65
2023-01-11T01:54:41.785Z,2.79
2023-01-11T01:57:45.058Z,2.88
2023-01-11T02:00:47.910Z,2.93
2023-01-11T02:03:51.629Z,3.02
2023-01-11T02:07:31.233Z,3.18
2023-01-11T02:10:34.020Z,3.18
2023-01-11T02:13:46.034Z,3.20
2023-01-11T02:16:48.831Z,3.22
2023-01-11T02:19:58.435Z,3.10
2023-01-11T02:23:30.788Z,3.21
2023-01-11T02:27:20.059Z,3.33
2023-01-11T02:30:44.673Z,3.33
2023-01-11T02:34:16.604Z,3.37
2023-01-11T02:37:41.265Z,3.18
2023-01-11T02:41:12.628Z,3.03
2023-01-11T02:44:36.239Z,2.87
2023-01-11T02:48:02.309Z,2.75
2023-01-11T02:51:12.886Z,2.68
2023-01-11T02:54:18.644Z,2.68
2023-01-11T02:57:22.881Z,2.65
2023-01-11T03:00:25.882Z,2.56
2023-01-11T03:03:28.532Z,2.32
2023-01-11T03:06:35.361Z,2.25
2023-01-11T03:10:08.340Z,2.08
2023-01-11T03:13:13.995Z,2.03
2023-01-11T03:16:25.344Z,1.93
2023-01-11T03:19:37.451Z,1.91
2023-01-11T03:23:02.628Z,1.86
2023-01-11T03:26:20.492Z,1.74
2023-01-11T03:29:30.260Z,1.69
2023-01-11T03:32:42.347Z,1.60
2023-01-11T03:35:44.747Z,1.66
2023-01-11T03:39:05.500Z,1.61
2023-01-11T03:42:09.469Z,1.54
2023-01-11T03:45:12.374Z,1.52
2023-01-11T03:48:18.772Z,1.63
2023-01-11T03:51:27.581Z,1.64
2023-01-11T03:54:31.025Z,1.76
2023-01-11T03:57:36.993Z,1.77
2023-01-11T04:00:40.500Z,1.74
2023-01-11T04:03:43.348Z,1.63
2023-01-11T04:06:45.908Z,1.59
2023-01-11T04:09:48.756Z,1.50
2023-01-11T04:12:51.355Z,1.44
2023-01-11T04:15:54.475Z,1.29
2023-01-11T04:18:57.085Z,1.29
2023-01-11T04:21:59.880Z,1.36
2023-01-11T04:25:02.410Z,1.42
2023-01-11T04:28:05.619Z,1.42
2023-01-11T04:31:08.208Z,1.48
2023-01-11T04:34:12.289Z,1.38
2023-01-11T04:37:14.784Z,1.33
2023-01-11T04:40:18.280Z,1.35
2023-01-11T04:43:20.815Z,1.31
2023-01-11T04:46:24.410Z,1.36
2023-01-11T04:49:26.959Z,1.35
2023-01-11T04:52:29.722Z,1.49
2023-01-11T04:55:32.253Z,1.40
2023-01-11T04:58:38.107Z,1.48
2023-01-11T05:01:40.873Z,1.45
2023-01-11T05:04:44.031Z,1.45
2023-01-11T05:07:48.475Z,1.29
2023-01-11T05:10:56.053Z,1.10
2023-01-11T05:14:00.075Z,0.97
2023-01-11T05:17:02.940Z,0.95
2023-01-11T05:20:05.824Z,0.93
2023-01-11T05:23:08.915Z,0.81
2023-01-11T05:26:14.857Z,0.68
2023-01-11T05:29:19.305Z,0.49
2023-01-11T05:32:21.995Z,0.33
2023-01-11T05:35:24.931Z,0.16
2023-01-11T05:38:28.598Z,0.16
2023-01-11T05:41:31.430Z,0.06
2023-01-11T05:44:52.573Z,-0.12
2023-01-11T05:47:55.510Z,-0.25
2023-01-11T05:51:01.347Z,-0.17
2023-01-11T05:54:05.792Z,-0.22
2023-01-11T05:57:11.586Z,-0.24
2023-01-11T06:00:15.114Z,-0.30
2023-01-11T06:03:18.774Z,-0.28
2023-01-11T06:06:22.215Z,-0.14
2023-01-11T06:09:25.208Z,-0.06
2023-01-11T06:12:27.984Z,-0.02
2023-01-11T06:15:31.017Z,0.04
2023-01-11T06:18:39.248Z,0.08
2023-01-11T06:21:42.286Z,0.08
2023-01-11T06:24:45.234Z,0.04
2023-01-11T06:27:48.337Z,0.03
2023-01-11T06:30:55.651Z,-0.09
2023-01-11T06:33:58.804Z,-0.06
2023-01-11T06:37:01.717Z,-0.18
2023-01-11T06:40:05.292Z,-0.30
2023-01-11T06:43:09.205Z,-0.41
2023-01-11T06:46:14.508Z,-0.61
2023-01-11T06:49:17.523Z,-0.65
2023-01-11T06:52:20.703Z,-0.40
2023-01-11T06:55:25.617Z,-0.07
2023-01-11T06:58:29.021Z,0.10
2023-01-11T07:01:32.533Z,0.15
2023-01-11T07:04:37.792Z,0.16
2023-01-11T07:07:43.473Z,0.28
2023-01-11T07:10:52.577Z,0.19
2023-01-11T07:13:58.068Z,0.49
2023-01-11T07:17:02.059Z,0.48
2023-01-11T07:20:06.363Z,0.43
2023-01-11T07:23:11.349Z,0.45
2023-01-11T07:26:14.936Z,0.49
2023-01-11T07:29:18.964Z,0.55
2023-01-11T07:32:21.714Z,0.56
2023-01-11T07:35:28.056Z,0.57
2023-01-11T07:38:32.447Z,0.67
2023-01-11T07:41:54.948Z,0.85
2023-01-11T07:44:58.706Z,0.83
2023-01-11T07:48:03.349Z,0.81
2023-01-11T07:51:06.245Z,0.83
2023-01-11T07:54:09.370Z,0.83
2023-01-11T07:57:12.132Z,0.96
2023-01-11T08:00:16.344Z,1.17
2023-01-11T08:03:20.039Z,1.06
2023-01-11T08:06:22.865Z,1.14
2023-01-11T08:09:25.962Z,1.27
2023-01-11T08:12:47.246Z,1.40
2023-01-11T08:15:51.363Z,1.50
2023-01-11T08:18:54.059Z,1.54
2023-01-11T08:21:57.024Z,1.71
2023-01-11T08:25:06.817Z,1.70
2023-01-11T08:28:11.418Z,1.75
2023-01-11T08:31:14.288Z,1.81
2023-01-11T08:34:17.237Z,1.96
2023-01-11T08:37:20.058Z,2.13
2023-01-11T08:40:24.387Z,2.23
2023-01-11T08:43:27.336Z,2.31
2023-01-11T08:46:30.498Z,2.38
2023-01-11T08:49:33.175Z,2.34
2023-01-11T08:52:36.055Z,2.43
2023-01-11T08:55:41.746Z,2.46
2023-01-11T08:58:44.776Z,2.50
2023-01-11T09:01:47.547Z,2.60
2023-01-11T09:04:50.606Z,2.60
2023-01-11T09:07:56.669Z,2.66
2023-01-11T09:11:00.254Z,2.65
2023-01-11T09:14:04.051Z,2.61
2023-01-11T09:17:07.455Z,2.75
2023-01-11T09:20:12.135Z,2.92
2023-01-11T09:23:14.948Z,3.08
2023-01-11T09:26:17.763Z,3.26
2023-01-11T09:29:20.932Z,3.52
2023-01-11T09:32:23.921Z,3.73
2023-01-11T09:35:27.291Z,3.87
2023-01-11T09:38:30.961Z,4.02
2023-01-11T09:41:46.716Z,4.08
2023-01-11T09:44:52.336Z,4.10
2023-01-11T09:48:03.708Z,4.06
2023-01-11T09:51:06.519Z,4.07
2023-01-11T09:54:17.889Z,4.20
2023-01-11T09:57:27.903Z,4.10
2023-01-11T10:00:52.260Z,4.08
2023-01-11T10:04:16.506Z,4.11
2023-01-11T10:18:26.524Z,4.29
2023-01-11T10:22:39.788Z,4.52
2023-01-11T10:25:55.379Z,4.55
2023-01-11T10:29:16.571Z,4.75
2023-01-11T10:32:47.879Z,4.78
2023-01-11T10:35:59.755Z,4.75
2023-01-11T10:39:30.208Z,4.80
2023-01-11T10:42:44.295Z,4.80
2023-01-11T10:45:50.907Z,4.80
2023-01-11T10:49:22.632Z,4.93
2023-01-11T10:52:41.623Z,4.97
2023-01-11T10:56:11.339Z,4.93
2023-01-11T10:59:52.599Z,5.04
2023-01-11T11:03:27.575Z,5.04
2023-01-11T11:06:45.759Z,5.30
2023-01-11T11:09:57.409Z,5.25
2023-01-11T11:13:16.382Z,5.20
2023-01-11T11:16:22.182Z,5.59
2023-01-11T11:19:30.479Z,5.44
2023-01-11T11:22:33.857Z,5.23
2023-01-11T11:25:38.698Z,5.22
2023-01-11T11:29:00.061Z,5.33
2023-01-11T11:32:03.421Z,5.17
2023-01-11T11:35:08.129Z,5.21
2023-01-11T11:38:22.868Z,5.36
2023-01-11T11:41:25.782Z,5.38
2023-01-11T11:44:28.667Z,5.43
2023-01-11T11:47:31.278Z,5.37
2023-01-11T11:50:49.156Z,5.42
2023-01-11T11:53:55.011Z,5.41
2023-01-11T11:56:59.415Z,5.46
2023-01-11T12:00:09.296Z,5.40
2023-01-11T12:03:42.238Z,5.35
2023-01-11T12:06:49.261Z,5.42
2023-01-11T12:10:09.011Z,5.29
2023-01-11T12:13:35.523Z,5.48
2023-01-11T12:16:40.953Z,5.41
2023-01-11T12:19:47.977Z,5.68
2023-01-11T12:23:12.862Z,5.56
2023-01-11T12:26:19.916Z,5.46
2023-01-11T12:29:29.000Z,5.57
2023-01-11T12:32:59.083Z,5.55
2023-01-11T12:36:07.948Z,5.78
2023-01-11T12:39:36.517Z,5.92
2023-01-11T12:42:51.548Z,5.69
2023-01-11T12:46:07.327Z,5.71
2023-01-11T12:49:29.164Z,5.69
2023-01-11T12:52:56.925Z,5.60
2023-01-11T12:56:26.960Z,5.64
2023-01-11T13:00:07.468Z,5.68
2023-01-11T13:03:42.918Z,5.87
2023-01-11T13:06:45.457Z,5.93
2023-01-11T13:10:15.935Z,5.90
2023-01-11T13:13:51.291Z,5.95
2023-01-11T13:16:58.509Z,6.11
2023-01-11T13:20:24.577Z,6.23
2023-01-11T13:23:49.831Z,6.26
2023-01-11T13:26:55.276Z,6.37
2023-01-11T13:30:00.985Z,6.48
2023-01-11T13:33:06.803Z,6.61
2023-01-11T13:36:22.800Z,6.80
2023-01-11T13:39:35.393Z,6.90
2023-01-11T13:42:46.341Z,7.03
2023-01-11T13:45:49.079Z,7.00
2023-01-11T13:49:24.296Z,6.94
2023-01-11T13:52:50.600Z,6.99
2023-01-11T13:56:15.751Z,6.91
2023-01-11T13:59:41.217Z,6.86
2023-01-11T14:02:48.277Z,6.75
2023-01-11T14:05:58.967Z,6.62
2023-01-11T14:09:20.528Z,6.50
2023-01-11T14:12:54.724Z,6.34
2023-01-11T14:15:59.698Z,6.13
2023-01-11T14:19:28.653Z,5.99
2023-01-11T14:22:56.325Z,5.95
2023-01-11T14:26:17.691Z,5.91
2023-01-11T14:29:45.303Z,5.85
2023-01-11T14:33:15.336Z,5.72
2023-01-11T14:36:18.008Z,5.54
2023-01-11T14:39:43.902Z,5.41
2023-01-11T14:43:08.197Z,5.27
2023-01-11T14:46:39.376Z,5.09
2023-01-11T14:50:16.214Z,4.94
2023-01-11T14:53:24.067Z,4.71
2023-01-11T14:56:37.584Z,4.60
2023-01-11T14:59:40.868Z,4.45
2023-01-11T15:02:43.554Z,4.35
2023-01-11T15:05:47.463Z,4.19
2023-01-11T15:08:55.141Z,4.10
2023-01-11T15:12:11.981Z,3.98
2023-01-11T15:15:17.762Z,3.89
2023-01-11T15:18:24.029Z,3.77
2023-01-11T15:21:27.423Z,3.75
2023-01-11T15:24:43.252Z,3.68
2023-01-11T15:27:46.295Z,3.60
2023-01-11T15:30:52.642Z,3.53
2023-01-11T15:33:55.654Z,3.53
2023-01-11T15:37:05.521Z,3.49
2023-01-11T15:40:20.731Z,3.41
2023-01-11T15:44:16.931Z,3.31
2023-01-11T15:47:43.756Z,3.24
2023-01-11T15:51:07.723Z,3.20
2023-01-11T15:54:33.338Z,3.16
2023-01-11T15:58:06.981Z,3.19
2023-01-11T16:01:23.461Z,3.19
2023-01-11T16:04:33.940Z,3.32
2023-01-11T16:07:42.462Z,3.34
2023-01-11T16:10:51.828Z,3.35
2023-01-11T16:14:11.147Z,3.37
2023-01-11T16:17:15.539Z,3.21
2023-01-11T16:20:20.904Z,3.14
2023-01-11T16:23:24.168Z,3.13
2023-01-11T16:26:26.757Z,3.16
2023-01-11T16:29:37.516Z,3.21
2023-01-11T16:32:40.403Z,3.22
2023-01-11T16:35:43.295Z,3.23
2023-01-11T16:38:50.747Z,3.31
2023-01-11T16:42:03.929Z,3.37
2023-01-11T16:45:08.779Z,3.53
2023-01-11T16:48:17.068Z,3.59
2023-01-11T16:51:21.565Z,3.65
2023-01-11T16:54:27.686Z,3.74
2023-01-11T16:57:39.410Z,3.81
2023-01-11T17:00:42.309Z,3.87
2023-01-11T17:03:50.905Z,3.94
2023-01-11T17:06:57.096Z,3.99
2023-01-11T17:10:23.360Z,4.03
2023-01-11T17:13:54.565Z,4.10
2023-01-11T17:17:02.964Z,4.04
2023-01-11T17:20:26.755Z,4.00
2023-01-11T17:23:29.294Z,4.00
2023-01-11T17:26:42.075Z,3.82
2023-01-11T17:29:45.146Z,3.70
2023-01-11T17:32:50.348Z,3.70
2023-01-11T17:35:54.096Z,3.69
2023-01-11T17:38:58.043Z,3.70
2023-01-11T17:42:25.152Z,3.76
2023-01-11T17:45:28.038Z,3.81
2023-01-11T17:48:31.702Z,3.88
2023-01-11T17:51:35.229Z,3.89
2023-01-11T17:54:37.929Z,3.91
2023-01-11T17:57:40.864Z,3.94
2023-01-11T18:00:45.718Z,3.98
2023-01-11T18:03:54.121Z,4.08
2023-01-11T18:07:16.040Z,4.07
2023-01-11T18:10:27.859Z,4.12
2023-01-11T18:13:34.862Z,4.19
2023-01-11T18:16:59.084Z,4.20
2023-01-11T18:20:23.206Z,4.21
2023-01-11T18:23:27.006Z,4.11
2023-01-11T18:26:32.103Z,4.04
2023-01-11T18:29:37.593Z,3.99
2023-01-11T18:32:43.531Z,3.96
2023-01-11T18:35:51.847Z,4.02
2023-01-11T18:38:54.605Z,4.03
2023-01-11T18:42:09.368Z,4.06
2023-01-11T18:45:12.887Z,4.09
2023-01-11T18:48:15.855Z,4.12
2023-01-11T18:51:23.038Z,4.14
2023-01-11T18:54:25.937Z,4.17
2023-01-11T18:57:29.128Z,4.19
2023-01-11T19:00:32.114Z,4.19
2023-01-11T19:03:34.796Z,4.22
2023-01-11T19:06:37.640Z,4.23
2023-01-11T19:09:41.601Z,4.24
2023-01-11T19:12:45.096Z,4.23
2023-01-11T19:15:47.708Z,4.25
2023-01-11T19:18:54.264Z,4.27
2023-01-11T19:21:57.100Z,4.35
2023-01-11T19:25:00.215Z,4.35
2023-01-11T19:28:03.682Z,4.38
2023-01-11T19:31:08.209Z,4.35
2023-01-11T19:34:10.953Z,4.37
2023-01-11T19:37:13.789Z,4.35
2023-01-11T19:40:16.824Z,4.40
2023-01-11T19:43:19.663Z,4.46
2023-01-11T19:46:31.067Z,4.49
2023-01-11T19:49:34.670Z,4.49
2023-01-11T19:52:37.186Z,4.59
2023-01-11T19:55:40.052Z,4.57
2023-01-11T19:58:42.863Z,4.58
2023-01-11T20:01:46.719Z,4.63
2023-01-11T20:04:49.802Z,4.63
2023-01-11T20:07:53.974Z,4.67
2023-01-11T20:10:57.076Z,4.64
2023-01-11T20:13:59.957Z,4.62
2023-01-11T20:17:03.094Z,4.61
2023-01-11T20:20:07.078Z,4.60
2023-01-11T20:23:11.438Z,4.60
2023-01-11T20:26:17.079Z,4.62
2023-01-11T20:29:20.028Z,4.63
2023-01-11T20:32:40.271Z,4.65
2023-01-11T20:35:44.777Z,4.63
2023-01-11T20:38:47.309Z,4.58
2023-01-11T20:41:51.101Z,4.59
2023-01-11T20:44:53.910Z,4.60
2023-01-11T20:47:56.910Z,4.60
2023-01-11T20:51:00.975Z,4.58
2023-01-11T20:54:04.924Z,4.57
2023-01-11T20:57:12.384Z,4.56
2023-01-11T21:00:15.840Z,4.56
2023-01-11T21:03:20.117Z,4.54
2023-01-11T21:06:22.969Z,4.56
2023-01-11T21:09:25.602Z,4.53
2023-01-11T21:12:28.540Z,4.52
2023-01-11T21:15:31.032Z,4.55
2023-01-11T21:18:33.895Z,4.53
2023-01-11T21:21:36.473Z,4.51
2023-01-11T21:24:41.159Z,4.51
2023-01-11T21:27:43.708Z,4.47
2023-01-11T21:30:46.629Z,4.45
2023-01-11T21:33:49.888Z,4.35
2023-01-11T21:36:53.655Z,4.28
2023-01-11T21:39:56.263Z,4.20
2023-01-11T21:42:59.317Z,4.11
2023-01-11T21:46:02.880Z,4.01
2023-01-11T21:49:06.329Z,3.82
2023-01-11T21:52:09.045Z,3.87
2023-01-11T21:55:11.846Z,3.81
2023-01-11T21:58:14.409Z,3.77
2023-01-11T22:01:19.558Z,3.72
2023-01-11T22:04:22.798Z,3.68
2023-01-11T22:07:30.846Z,3.64
2023-01-11T22:10:34.204Z,3.62
2023-01-11T22:13:36.980Z,3.61
2023-01-11T22:16:40.754Z,3.58
2023-01-11T22:19:43.360Z,3.55
2023-01-11T22:22:46.146Z,3.50
2023-01-11T22:25:48.812Z,3.45
2023-01-11T22:29:12.143Z,3.40
2023-01-11T22:32:14.786Z,3.38
2023-01-11T22:35:17.608Z,3.34
2023-01-11T22:38:20.171Z,3.31
2023-01-11T22:41:24.631Z,3.27
2023-01-11T22:44:27.384Z,3.26
2023-01-11T22:47:30.154Z,3.27
2023-01-11T22:50:32.721Z,3.23
2023-01-11T22:53:42.545Z,3.25
2023-01-11T22:56:45.233Z,3.25
2023-01-11T22:59:48.051Z,3.22
2023-01-11T23:02:50.625Z,3.20
2023-01-11T23:05:53.547Z,3.17
2023-01-11T23:08:57.026Z,3.17
2023-01-11T23:12:18.577Z,3.17
2023-01-11T23:15:21.216Z,3.15
2023-01-11T23:18:24.145Z,3.15
2023-01-11T23:21:27.135Z,3.13
2023-01-11T23:24:30.339Z,3.12
2023-01-11T23:27:34.437Z,3.12
2023-01-11T23:30:37.306Z,3.10
2023-01-11T23:33:39.896Z,3.12
2023-01-11T23:36:43.161Z,3.11
2023-01-11T23:39:46.015Z,3.13
2023-01-11T23:42:49.123Z,3.15
2023-01-11T23:46:14.122Z,3.15
2023-01-11T23:49:17.997Z,3.14
2023-01-11T23:52:22.948Z,3.14
2023-01-11T23:55:26.435Z,3.10
2023-01-11T23:58:31.647Z,3.12
